sensor_id;sensor_type;location;lat;lon;timestamp;P1;durP1;ratioP1;P2;durP2;ratioP2
59468;SDS011;45277;52.768;18.262;2023-11-22T00:00:29;12.43;;;7.28;;
59468;SDS011;45277;52.768;18.262;2023-11-22T00:02:21;14.40;;;7.07;;
59468;SDS011;45277;52.768;18.262;2023-11-22T00:03:52;13.68;;;7.43;;
59468;SDS011;45277;52.768;18.262;2023-11-22T00:05:25;13.23;;;7.88;;
59468;SDS011;45277;52.768;18.262;2023-11-22T00:06:56;10.98;;;6.78;;
59468;SDS011;45277;52.768;18.262;2023-11-22T00:08:28;12.20;;;6.78;;
59468;SDS011;45277;52.768;18.262;2023-11-22T00:10:02;14.15;;;6.47;;
59468;SDS011;45277;52.768;18.262;2023-11-22T00:11:35;14.85;;;7.28;;
59468;SDS011;45277;52.768;18.262;2023-11-22T00:13:06;15.77;;;7.82;;
59468;SDS011;45277;52.768;18.262;2023-11-22T00:14:38;15.90;;;7.95;;
59468;SDS011;45277;52.768;18.262;2023-11-22T00:16:09;9.77;;;6.43;;
59468;SDS011;45277;52.768;18.262;2023-11-22T00:17:41;14.15;;;7.18;;
59468;SDS011;45277;52.768;18.262;2023-11-22T00:19:12;15.02;;;6.55;;
59468;SDS011;45277;52.768;18.262;2023-11-22T00:20:46;13.07;;;6.95;;
59468;SDS011;45277;52.768;18.262;2023-11-22T00:22:18;12.38;;;6.82;;
59468;SDS011;45277;52.768;18.262;2023-11-22T00:23:50;13.20;;;6.72;;
59468;SDS011;45277;52.768;18.262;2023-11-22T00:25:22;17.42;;;7.05;;
59468;SDS011;45277;52.768;18.262;2023-11-22T00:26:53;13.32;;;6.57;;
59468;SDS011;45277;52.768;18.262;2023-11-22T00:28:25;12.27;;;6.80;;
59468;SDS011;45277;52.768;18.262;2023-11-22T00:29:57;9.80;;;6.47;;
59468;SDS011;45277;52.768;18.262;2023-11-22T00:31:29;14.15;;;7.38;;
59468;SDS011;45277;52.768;18.262;2023-11-22T00:33:01;13.23;;;7.05;;
59468;SDS011;45277;52.768;18.262;2023-11-22T00:34:32;12.73;;;7.00;;
59468;SDS011;45277;52.768;18.262;2023-11-22T00:36:03;11.68;;;6.63;;
59468;SDS011;45277;52.768;18.262;2023-11-22T00:37:36;12.13;;;7.32;;
59468;SDS011;45277;52.768;18.262;2023-11-22T00:39:08;11.68;;;6.82;;
59468;SDS011;45277;52.768;18.262;2023-11-22T00:40:43;12.32;;;6.90;;
59468;SDS011;45277;52.768;18.262;2023-11-22T00:42:15;10.00;;;6.18;;
59468;SDS011;45277;52.768;18.262;2023-11-22T00:43:50;14.80;;;6.93;;
59468;SDS011;45277;52.768;18.262;2023-11-22T00:45:21;14.40;;;6.50;;
59468;SDS011;45277;52.768;18.262;2023-11-22T00:46:53;12.88;;;6.65;;
59468;SDS011;45277;52.768;18.262;2023-11-22T00:48:26;11.10;;;6.07;;
59468;SDS011;45277;52.768;18.262;2023-11-22T00:49:57;11.20;;;6.60;;
59468;SDS011;45277;52.768;18.262;2023-11-22T00:51:29;13.52;;;7.57;;
59468;SDS011;45277;52.768;18.262;2023-11-22T00:53:01;13.45;;;6.70;;
59468;SDS011;45277;52.768;18.262;2023-11-22T00:54:33;12.13;;;5.85;;
59468;SDS011;45277;52.768;18.262;2023-11-22T00:56:04;11.63;;;6.47;;
59468;SDS011;45277;52.768;18.262;2023-11-22T00:57:36;12.32;;;6.93;;
59468;SDS011;45277;52.768;18.262;2023-11-22T00:59:08;10.77;;;7.28;;
59468;SDS011;45277;52.768;18.262;2023-11-22T01:00:39;14.07;;;7.03;;
59468;SDS011;45277;52.768;18.262;2023-11-22T01:02:11;11.20;;;6.95;;
59468;SDS011;45277;52.768;18.262;2023-11-22T01:03:42;11.05;;;6.80;;
59468;SDS011;45277;52.768;18.262;2023-11-22T01:05:14;13.93;;;7.97;;
59468;SDS011;45277;52.768;18.262;2023-11-22T01:06:46;11.25;;;6.45;;
59468;SDS011;45277;52.768;18.262;2023-11-22T01:08:17;14.13;;;7.88;;
59468;SDS011;45277;52.768;18.262;2023-11-22T01:09:50;14.75;;;7.85;;
59468;SDS011;45277;52.768;18.262;2023-11-22T01:11:21;14.60;;;8.70;;
59468;SDS011;45277;52.768;18.262;2023-11-22T01:12:52;12.43;;;7.28;;
59468;SDS011;45277;52.768;18.262;2023-11-22T01:14:24;15.65;;;8.05;;
59468;SDS011;45277;52.768;18.262;2023-11-22T01:15:56;13.20;;;7.60;;
59468;SDS011;45277;52.768;18.262;2023-11-22T01:17:28;13.57;;;7.00;;
59468;SDS011;45277;52.768;18.262;2023-11-22T01:18:59;15.57;;;7.93;;
59468;SDS011;45277;52.768;18.262;2023-11-22T01:20:31;14.55;;;9.10;;
59468;SDS011;45277;52.768;18.262;2023-11-22T01:22:02;14.05;;;7.80;;
59468;SDS011;45277;52.768;18.262;2023-11-22T01:23:35;16.10;;;8.48;;
59468;SDS011;45277;52.768;18.262;2023-11-22T01:25:06;19.42;;;8.10;;
59468;SDS011;45277;52.768;18.262;2023-11-22T01:26:38;14.40;;;8.52;;
59468;SDS011;45277;52.768;18.262;2023-11-22T01:28:10;18.08;;;8.32;;
59468;SDS011;45277;52.768;18.262;2023-11-22T01:29:41;16.67;;;8.30;;
59468;SDS011;45277;52.768;18.262;2023-11-22T01:31:13;17.42;;;8.77;;
59468;SDS011;45277;52.768;18.262;2023-11-22T01:32:44;17.60;;;8.65;;
59468;SDS011;45277;52.768;18.262;2023-11-22T01:34:16;14.57;;;8.60;;
59468;SDS011;45277;52.768;18.262;2023-11-22T01:35:47;17.00;;;8.23;;
59468;SDS011;45277;52.768;18.262;2023-11-22T01:37:20;14.43;;;8.57;;
59468;SDS011;45277;52.768;18.262;2023-11-22T01:38:52;16.02;;;8.52;;
59468;SDS011;45277;52.768;18.262;2023-11-22T01:40:23;14.43;;;8.38;;
59468;SDS011;45277;52.768;18.262;2023-11-22T01:41:57;17.13;;;8.80;;
59468;SDS011;45277;52.768;18.262;2023-11-22T01:43:28;17.45;;;8.35;;
59468;SDS011;45277;52.768;18.262;2023-11-22T01:44:59;14.50;;;7.68;;
59468;SDS011;45277;52.768;18.262;2023-11-22T01:46:31;16.05;;;7.97;;
59468;SDS011;45277;52.768;18.262;2023-11-22T01:48:04;15.57;;;8.98;;
59468;SDS011;45277;52.768;18.262;2023-11-22T01:49:36;15.10;;;9.15;;
59468;SDS011;45277;52.768;18.262;2023-11-22T01:51:07;17.77;;;9.30;;
59468;SDS011;45277;52.768;18.262;2023-11-22T01:52:39;17.30;;;9.00;;
59468;SDS011;45277;52.768;18.262;2023-11-22T01:54:11;15.48;;;8.85;;
59468;SDS011;45277;52.768;18.262;2023-11-22T01:55:43;14.77;;;8.73;;
59468;SDS011;45277;52.768;18.262;2023-11-22T01:57:17;17.45;;;9.98;;
59468;SDS011;45277;52.768;18.262;2023-11-22T01:58:49;18.25;;;9.57;;
59468;SDS011;45277;52.768;18.262;2023-11-22T02:00:22;18.67;;;9.82;;
59468;SDS011;45277;52.768;18.262;2023-11-22T02:04:15;21.25;;;10.82;;
59468;SDS011;45277;52.768;18.262;2023-11-22T02:05:46;19.02;;;9.52;;
59468;SDS011;45277;52.768;18.262;2023-11-22T02:07:17;18.55;;;10.20;;
59468;SDS011;45277;52.768;18.262;2023-11-22T02:08:49;18.75;;;9.38;;
59468;SDS011;45277;52.768;18.262;2023-11-22T02:10:21;14.85;;;9.00;;
59468;SDS011;45277;52.768;18.262;2023-11-22T02:11:54;15.13;;;8.55;;
59468;SDS011;45277;52.768;18.262;2023-11-22T02:13:26;15.23;;;9.27;;
59468;SDS011;45277;52.768;18.262;2023-11-22T02:14:57;16.30;;;9.77;;
59468;SDS011;45277;52.768;18.262;2023-11-22T02:16:28;20.95;;;9.68;;
59468;SDS011;45277;52.768;18.262;2023-11-22T02:18:00;19.90;;;8.88;;
59468;SDS011;45277;52.768;18.262;2023-11-22T02:19:33;11.93;;;7.70;;
59468;SDS011;45277;52.768;18.262;2023-11-22T02:21:05;12.27;;;7.70;;
59468;SDS011;45277;52.768;18.262;2023-11-22T02:22:44;15.35;;;8.63;;
59468;SDS011;45277;52.768;18.262;2023-11-22T02:24:16;14.23;;;8.57;;
59468;SDS011;45277;52.768;18.262;2023-11-22T02:25:47;15.90;;;8.50;;
59468;SDS011;45277;52.768;18.262;2023-11-22T02:27:19;14.50;;;7.38;;
59468;SDS011;45277;52.768;18.262;2023-11-22T02:28:51;17.60;;;8.18;;
59468;SDS011;45277;52.768;18.262;2023-11-22T02:30:23;16.05;;;8.15;;
59468;SDS011;45277;52.768;18.262;2023-11-22T02:31:56;15.75;;;9.68;;
59468;SDS011;45277;52.768;18.262;2023-11-22T02:33:28;17.63;;;9.30;;
59468;SDS011;45277;52.768;18.262;2023-11-22T02:34:59;15.38;;;8.35;;
59468;SDS011;45277;52.768;18.262;2023-11-22T02:36:31;18.15;;;9.50;;
59468;SDS011;45277;52.768;18.262;2023-11-22T02:38:03;15.38;;;8.93;;
59468;SDS011;45277;52.768;18.262;2023-11-22T02:39:40;19.38;;;9.68;;
59468;SDS011;45277;52.768;18.262;2023-11-22T02:41:22;18.45;;;9.35;;
59468;SDS011;45277;52.768;18.262;2023-11-22T02:42:55;15.27;;;9.38;;
59468;SDS011;45277;52.768;18.262;2023-11-22T02:44:26;16.73;;;9.10;;
59468;SDS011;45277;52.768;18.262;2023-11-22T02:45:58;20.13;;;9.40;;
59468;SDS011;45277;52.768;18.262;2023-11-22T02:47:29;18.35;;;10.13;;
59468;SDS011;45277;52.768;18.262;2023-11-22T02:49:00;14.52;;;9.23;;
59468;SDS011;45277;52.768;18.262;2023-11-22T02:50:32;18.50;;;10.38;;
59468;SDS011;45277;52.768;18.262;2023-11-22T02:52:05;12.82;;;8.20;;
59468;SDS011;45277;52.768;18.262;2023-11-22T02:53:36;13.00;;;8.15;;
59468;SDS011;45277;52.768;18.262;2023-11-22T02:55:08;19.17;;;9.02;;
59468;SDS011;45277;52.768;18.262;2023-11-22T02:56:40;17.55;;;10.20;;
59468;SDS011;45277;52.768;18.262;2023-11-22T02:58:11;16.45;;;9.35;;
59468;SDS011;45277;52.768;18.262;2023-11-22T02:59:43;18.88;;;9.73;;
59468;SDS011;45277;52.768;18.262;2023-11-22T03:01:15;16.05;;;9.57;;
59468;SDS011;45277;52.768;18.262;2023-11-22T03:02:46;18.35;;;9.52;;
59468;SDS011;45277;52.768;18.262;2023-11-22T03:04:18;18.15;;;9.68;;
59468;SDS011;45277;52.768;18.262;2023-11-22T03:05:50;18.85;;;10.05;;
59468;SDS011;45277;52.768;18.262;2023-11-22T03:07:21;17.55;;;10.45;;
59468;SDS011;45277;52.768;18.262;2023-11-22T03:08:52;19.33;;;10.15;;
59468;SDS011;45277;52.768;18.262;2023-11-22T03:10:24;22.70;;;10.60;;
59468;SDS011;45277;52.768;18.262;2023-11-22T03:11:55;19.00;;;10.27;;
59468;SDS011;45277;52.768;18.262;2023-11-22T03:13:27;13.45;;;7.85;;
59468;SDS011;45277;52.768;18.262;2023-11-22T03:14:58;19.65;;;10.95;;
59468;SDS011;45277;52.768;18.262;2023-11-22T03:16:32;20.58;;;10.48;;
59468;SDS011;45277;52.768;18.262;2023-11-22T03:18:04;18.38;;;10.35;;
59468;SDS011;45277;52.768;18.262;2023-11-22T03:19:36;16.17;;;9.45;;
59468;SDS011;45277;52.768;18.262;2023-11-22T03:21:08;24.58;;;10.50;;
59468;SDS011;45277;52.768;18.262;2023-11-22T03:22:40;10.88;;;7.45;;
59468;SDS011;45277;52.768;18.262;2023-11-22T03:24:12;17.85;;;9.70;;
59468;SDS011;45277;52.768;18.262;2023-11-22T03:25:44;21.55;;;10.75;;
59468;SDS011;45277;52.768;18.262;2023-11-22T03:27:15;19.30;;;10.88;;
59468;SDS011;45277;52.768;18.262;2023-11-22T03:28:47;19.75;;;10.25;;
59468;SDS011;45277;52.768;18.262;2023-11-22T03:30:18;15.13;;;9.80;;
59468;SDS011;45277;52.768;18.262;2023-11-22T03:31:50;18.95;;;10.80;;
59468;SDS011;45277;52.768;18.262;2023-11-22T03:33:22;20.85;;;10.55;;
59468;SDS011;45277;52.768;18.262;2023-11-22T03:34:53;15.85;;;9.18;;
59468;SDS011;45277;52.768;18.262;2023-11-22T03:36:25;17.85;;;10.18;;
59468;SDS011;45277;52.768;18.262;2023-11-22T03:37:58;20.83;;;11.20;;
59468;SDS011;45277;52.768;18.262;2023-11-22T03:39:29;19.38;;;11.30;;
59468;SDS011;45277;52.768;18.262;2023-11-22T03:41:00;21.95;;;10.55;;
59468;SDS011;45277;52.768;18.262;2023-11-22T03:42:32;18.83;;;10.25;;
59468;SDS011;45277;52.768;18.262;2023-11-22T03:44:03;21.60;;;12.13;;
59468;SDS011;45277;52.768;18.262;2023-11-22T03:45:39;17.35;;;10.10;;
59468;SDS011;45277;52.768;18.262;2023-11-22T03:47:10;20.58;;;11.55;;
59468;SDS011;45277;52.768;18.262;2023-11-22T03:48:45;20.73;;;12.45;;
59468;SDS011;45277;52.768;18.262;2023-11-22T03:50:17;21.55;;;11.98;;
59468;SDS011;45277;52.768;18.262;2023-11-22T03:51:48;22.25;;;11.75;;
59468;SDS011;45277;52.768;18.262;2023-11-22T03:53:19;19.55;;;11.45;;
59468;SDS011;45277;52.768;18.262;2023-11-22T03:54:52;21.45;;;11.20;;
59468;SDS011;45277;52.768;18.262;2023-11-22T03:56:24;23.13;;;12.15;;
59468;SDS011;45277;52.768;18.262;2023-11-22T03:57:55;19.38;;;11.25;;
59468;SDS011;45277;52.768;18.262;2023-11-22T03:59:26;17.98;;;10.73;;
59468;SDS011;45277;52.768;18.262;2023-11-22T04:00:58;20.50;;;10.88;;
59468;SDS011;45277;52.768;18.262;2023-11-22T04:02:33;21.52;;;10.95;;
59468;SDS011;45277;52.768;18.262;2023-11-22T04:04:04;23.42;;;11.98;;
59468;SDS011;45277;52.768;18.262;2023-11-22T04:05:36;24.70;;;10.85;;
59468;SDS011;45277;52.768;18.262;2023-11-22T04:07:07;23.27;;;12.27;;
59468;SDS011;45277;52.768;18.262;2023-11-22T04:08:39;25.38;;;12.45;;
59468;SDS011;45277;52.768;18.262;2023-11-22T04:10:10;26.63;;;11.38;;
59468;SDS011;45277;52.768;18.262;2023-11-22T04:11:42;31.48;;;13.13;;
59468;SDS011;45277;52.768;18.262;2023-11-22T04:13:14;29.60;;;13.73;;
59468;SDS011;45277;52.768;18.262;2023-11-22T04:14:45;32.08;;;13.43;;
59468;SDS011;45277;52.768;18.262;2023-11-22T04:16:16;34.80;;;13.52;;
59468;SDS011;45277;52.768;18.262;2023-11-22T04:17:48;32.40;;;13.48;;
59468;SDS011;45277;52.768;18.262;2023-11-22T04:19:19;32.70;;;14.25;;
59468;SDS011;45277;52.768;18.262;2023-11-22T04:20:51;32.72;;;13.95;;
59468;SDS011;45277;52.768;18.262;2023-11-22T04:22:23;33.65;;;13.98;;
59468;SDS011;45277;52.768;18.262;2023-11-22T04:23:54;33.20;;;14.13;;
59468;SDS011;45277;52.768;18.262;2023-11-22T04:25:25;28.13;;;13.75;;
59468;SDS011;45277;52.768;18.262;2023-11-22T04:26:57;31.27;;;14.90;;
59468;SDS011;45277;52.768;18.262;2023-11-22T04:28:29;27.25;;;13.60;;
59468;SDS011;45277;52.768;18.262;2023-11-22T04:30:01;23.90;;;12.93;;
59468;SDS011;45277;52.768;18.262;2023-11-22T04:31:32;23.95;;;12.57;;
59468;SDS011;45277;52.768;18.262;2023-11-22T04:33:03;24.85;;;12.70;;
59468;SDS011;45277;52.768;18.262;2023-11-22T04:34:35;23.42;;;12.70;;
59468;SDS011;45277;52.768;18.262;2023-11-22T04:36:06;18.30;;;12.18;;
59468;SDS011;45277;52.768;18.262;2023-11-22T04:37:38;25.50;;;13.23;;
59468;SDS011;45277;52.768;18.262;2023-11-22T04:39:09;24.25;;;12.68;;
59468;SDS011;45277;52.768;18.262;2023-11-22T04:40:41;22.92;;;12.90;;
59468;SDS011;45277;52.768;18.262;2023-11-22T04:42:15;26.30;;;12.63;;
59468;SDS011;45277;52.768;18.262;2023-11-22T04:43:47;20.90;;;13.52;;
59468;SDS011;45277;52.768;18.262;2023-11-22T04:45:18;24.13;;;11.77;;
59468;SDS011;45277;52.768;18.262;2023-11-22T04:46:49;22.65;;;11.57;;
59468;SDS011;45277;52.768;18.262;2023-11-22T04:48:22;20.63;;;11.93;;
59468;SDS011;45277;52.768;18.262;2023-11-22T04:49:53;20.67;;;11.82;;
59468;SDS011;45277;52.768;18.262;2023-11-22T04:51:25;21.33;;;11.52;;
59468;SDS011;45277;52.768;18.262;2023-11-22T04:52:57;25.58;;;12.90;;
59468;SDS011;45277;52.768;18.262;2023-11-22T04:54:28;21.42;;;11.85;;
59468;SDS011;45277;52.768;18.262;2023-11-22T04:56:00;23.13;;;12.25;;
59468;SDS011;45277;52.768;18.262;2023-11-22T04:57:35;20.65;;;12.15;;
59468;SDS011;45277;52.768;18.262;2023-11-22T04:59:07;22.40;;;13.23;;
59468;SDS011;45277;52.768;18.262;2023-11-22T05:00:38;21.02;;;12.75;;
59468;SDS011;45277;52.768;18.262;2023-11-22T05:02:10;20.90;;;12.55;;
59468;SDS011;45277;52.768;18.262;2023-11-22T05:03:42;29.15;;;13.73;;
59468;SDS011;45277;52.768;18.262;2023-11-22T05:05:13;21.40;;;12.43;;
59468;SDS011;45277;52.768;18.262;2023-11-22T05:06:45;22.67;;;12.63;;
59468;SDS011;45277;52.768;18.262;2023-11-22T05:08:17;23.05;;;12.93;;
59468;SDS011;45277;52.768;18.262;2023-11-22T05:09:48;25.88;;;14.20;;
59468;SDS011;45277;52.768;18.262;2023-11-22T05:11:19;25.33;;;13.23;;
59468;SDS011;45277;52.768;18.262;2023-11-22T05:12:51;27.13;;;13.38;;
59468;SDS011;45277;52.768;18.262;2023-11-22T05:14:22;21.52;;;12.43;;
59468;SDS011;45277;52.768;18.262;2023-11-22T05:15:54;28.83;;;14.30;;
59468;SDS011;45277;52.768;18.262;2023-11-22T05:17:26;28.30;;;14.07;;
59468;SDS011;45277;52.768;18.262;2023-11-22T05:18:57;29.17;;;14.63;;
59468;SDS011;45277;52.768;18.262;2023-11-22T05:20:29;40.33;;;17.08;;
59468;SDS011;45277;52.768;18.262;2023-11-22T05:22:00;34.55;;;16.15;;
59468;SDS011;45277;52.768;18.262;2023-11-22T05:23:32;37.00;;;16.10;;
59468;SDS011;45277;52.768;18.262;2023-11-22T05:25:04;29.85;;;15.63;;
59468;SDS011;45277;52.768;18.262;2023-11-22T05:26:37;37.83;;;16.05;;
59468;SDS011;45277;52.768;18.262;2023-11-22T05:28:08;32.88;;;16.58;;
59468;SDS011;45277;52.768;18.262;2023-11-22T05:29:40;28.48;;;14.98;;
59468;SDS011;45277;52.768;18.262;2023-11-22T05:31:12;33.95;;;15.30;;
59468;SDS011;45277;52.768;18.262;2023-11-22T05:32:43;27.23;;;14.77;;
59468;SDS011;45277;52.768;18.262;2023-11-22T05:34:14;25.33;;;14.43;;
59468;SDS011;45277;52.768;18.262;2023-11-22T05:35:46;29.55;;;14.23;;
59468;SDS011;45277;52.768;18.262;2023-11-22T05:37:18;32.53;;;15.48;;
59468;SDS011;45277;52.768;18.262;2023-11-22T05:38:49;25.77;;;14.70;;
59468;SDS011;45277;52.768;18.262;2023-11-22T05:40:21;29.20;;;15.88;;
59468;SDS011;45277;52.768;18.262;2023-11-22T05:41:53;29.25;;;15.20;;
59468;SDS011;45277;52.768;18.262;2023-11-22T05:43:25;29.00;;;14.23;;
59468;SDS011;45277;52.768;18.262;2023-11-22T05:44:57;26.33;;;14.20;;
59468;SDS011;45277;52.768;18.262;2023-11-22T05:46:29;29.13;;;14.85;;
59468;SDS011;45277;52.768;18.262;2023-11-22T05:48:00;25.20;;;13.55;;
59468;SDS011;45277;52.768;18.262;2023-11-22T05:49:32;28.80;;;14.65;;
59468;SDS011;45277;52.768;18.262;2023-11-22T05:51:04;26.77;;;14.13;;
59468;SDS011;45277;52.768;18.262;2023-11-22T05:52:35;32.58;;;15.40;;
59468;SDS011;45277;52.768;18.262;2023-11-22T05:54:07;33.70;;;16.65;;
59468;SDS011;45277;52.768;18.262;2023-11-22T05:55:38;32.58;;;16.10;;
59468;SDS011;45277;52.768;18.262;2023-11-22T05:57:09;31.13;;;15.35;;
59468;SDS011;45277;52.768;18.262;2023-11-22T05:58:41;29.45;;;15.25;;
59468;SDS011;45277;52.768;18.262;2023-11-22T06:00:13;27.30;;;15.05;;
59468;SDS011;45277;52.768;18.262;2023-11-22T06:01:46;25.20;;;14.30;;
59468;SDS011;45277;52.768;18.262;2023-11-22T06:03:17;26.52;;;15.05;;
59468;SDS011;45277;52.768;18.262;2023-11-22T06:04:49;26.38;;;14.60;;
59468;SDS011;45277;52.768;18.262;2023-11-22T06:06:20;23.73;;;14.35;;
59468;SDS011;45277;52.768;18.262;2023-11-22T06:07:52;28.75;;;14.82;;
59468;SDS011;45277;52.768;18.262;2023-11-22T06:09:24;29.45;;;16.00;;
59468;SDS011;45277;52.768;18.262;2023-11-22T06:10:55;31.58;;;16.42;;
59468;SDS011;45277;52.768;18.262;2023-11-22T06:12:28;28.60;;;15.93;;
59468;SDS011;45277;52.768;18.262;2023-11-22T06:14:00;32.85;;;16.13;;
59468;SDS011;45277;52.768;18.262;2023-11-22T06:15:31;25.05;;;13.77;;
59468;SDS011;45277;52.768;18.262;2023-11-22T06:17:03;31.73;;;16.02;;
59468;SDS011;45277;52.768;18.262;2023-11-22T06:18:35;42.72;;;15.57;;
59468;SDS011;45277;52.768;18.262;2023-11-22T06:20:10;33.03;;;15.13;;
59468;SDS011;45277;52.768;18.262;2023-11-22T06:21:42;28.27;;;13.93;;
59468;SDS011;45277;52.768;18.262;2023-11-22T06:23:14;28.17;;;14.90;;
59468;SDS011;45277;52.768;18.262;2023-11-22T06:24:45;30.90;;;14.32;;
59468;SDS011;45277;52.768;18.262;2023-11-22T06:26:18;29.52;;;14.25;;
59468;SDS011;45277;52.768;18.262;2023-11-22T06:27:50;28.52;;;15.38;;
59468;SDS011;45277;52.768;18.262;2023-11-22T06:29:21;28.15;;;14.68;;
59468;SDS011;45277;52.768;18.262;2023-11-22T06:30:53;29.02;;;15.52;;
59468;SDS011;45277;52.768;18.262;2023-11-22T06:32:24;27.58;;;15.32;;
59468;SDS011;45277;52.768;18.262;2023-11-22T06:33:56;28.60;;;15.07;;
59468;SDS011;45277;52.768;18.262;2023-11-22T06:35:27;30.67;;;15.45;;
59468;SDS011;45277;52.768;18.262;2023-11-22T06:36:59;24.88;;;13.95;;
59468;SDS011;45277;52.768;18.262;2023-11-22T06:38:30;27.90;;;14.57;;
59468;SDS011;45277;52.768;18.262;2023-11-22T06:40:02;29.60;;;14.60;;
59468;SDS011;45277;52.768;18.262;2023-11-22T06:41:34;30.58;;;15.40;;
59468;SDS011;45277;52.768;18.262;2023-11-22T06:43:06;31.33;;;14.48;;
59468;SDS011;45277;52.768;18.262;2023-11-22T06:44:38;26.20;;;15.27;;
59468;SDS011;45277;52.768;18.262;2023-11-22T06:46:13;32.03;;;15.52;;
59468;SDS011;45277;52.768;18.262;2023-11-22T06:47:46;30.45;;;15.88;;
59468;SDS011;45277;52.768;18.262;2023-11-22T06:49:18;34.05;;;16.83;;
59468;SDS011;45277;52.768;18.262;2023-11-22T06:50:50;31.75;;;16.65;;
59468;SDS011;45277;52.768;18.262;2023-11-22T06:52:22;36.58;;;18.75;;
59468;SDS011;45277;52.768;18.262;2023-11-22T06:53:53;41.65;;;18.95;;
59468;SDS011;45277;52.768;18.262;2023-11-22T06:55:25;50.90;;;21.10;;
59468;SDS011;45277;52.768;18.262;2023-11-22T06:56:57;44.00;;;21.05;;
59468;SDS011;45277;52.768;18.262;2023-11-22T06:58:29;46.95;;;23.52;;
59468;SDS011;45277;52.768;18.262;2023-11-22T07:00:00;49.58;;;22.23;;
59468;SDS011;45277;52.768;18.262;2023-11-22T07:01:35;42.90;;;22.05;;
59468;SDS011;45277;52.768;18.262;2023-11-22T07:03:07;44.42;;;22.58;;
59468;SDS011;45277;52.768;18.262;2023-11-22T07:04:38;46.47;;;21.83;;
59468;SDS011;45277;52.768;18.262;2023-11-22T07:06:10;49.53;;;21.52;;
59468;SDS011;45277;52.768;18.262;2023-11-22T07:07:41;40.78;;;20.75;;
59468;SDS011;45277;52.768;18.262;2023-11-22T07:09:13;40.50;;;20.27;;
59468;SDS011;45277;52.768;18.262;2023-11-22T07:10:44;32.75;;;18.60;;
59468;SDS011;45277;52.768;18.262;2023-11-22T07:12:16;40.60;;;19.23;;
59468;SDS011;45277;52.768;18.262;2023-11-22T07:13:49;39.47;;;21.00;;
59468;SDS011;45277;52.768;18.262;2023-11-22T07:15:22;40.53;;;20.65;;
59468;SDS011;45277;52.768;18.262;2023-11-22T07:16:53;38.65;;;20.08;;
59468;SDS011;45277;52.768;18.262;2023-11-22T07:18:26;31.23;;;18.73;;
59468;SDS011;45277;52.768;18.262;2023-11-22T07:19:58;36.38;;;18.85;;
59468;SDS011;45277;52.768;18.262;2023-11-22T07:21:32;35.83;;;18.48;;
59468;SDS011;45277;52.768;18.262;2023-11-22T07:23:04;28.90;;;16.33;;
59468;SDS011;45277;52.768;18.262;2023-11-22T07:24:35;38.63;;;20.77;;
59468;SDS011;45277;52.768;18.262;2023-11-22T07:26:07;45.13;;;23.50;;
59468;SDS011;45277;52.768;18.262;2023-11-22T07:27:39;36.33;;;21.02;;
59468;SDS011;45277;52.768;18.262;2023-11-22T07:29:10;44.53;;;19.85;;
59468;SDS011;45277;52.768;18.262;2023-11-22T07:30:45;37.53;;;19.27;;
59468;SDS011;45277;52.768;18.262;2023-11-22T07:32:19;42.78;;;20.30;;
59468;SDS011;45277;52.768;18.262;2023-11-22T07:33:53;40.72;;;18.02;;
59468;SDS011;45277;52.768;18.262;2023-11-22T07:35:25;33.08;;;18.92;;
59468;SDS011;45277;52.768;18.262;2023-11-22T07:36:58;39.45;;;20.45;;
59468;SDS011;45277;52.768;18.262;2023-11-22T07:38:29;32.88;;;17.88;;
59468;SDS011;45277;52.768;18.262;2023-11-22T07:40:02;35.80;;;18.83;;
59468;SDS011;45277;52.768;18.262;2023-11-22T07:41:34;34.28;;;17.55;;
59468;SDS011;45277;52.768;18.262;2023-11-22T07:43:05;26.45;;;15.73;;
59468;SDS011;45277;52.768;18.262;2023-11-22T07:44:38;34.88;;;16.83;;
59468;SDS011;45277;52.768;18.262;2023-11-22T07:46:09;25.92;;;15.50;;
59468;SDS011;45277;52.768;18.262;2023-11-22T07:47:43;30.00;;;15.13;;
59468;SDS011;45277;52.768;18.262;2023-11-22T07:49:15;31.17;;;16.55;;
59468;SDS011;45277;52.768;18.262;2023-11-22T07:50:46;33.00;;;17.20;;
59468;SDS011;45277;52.768;18.262;2023-11-22T07:52:19;33.78;;;16.55;;
59468;SDS011;45277;52.768;18.262;2023-11-22T07:53:51;33.67;;;17.65;;
59468;SDS011;45277;52.768;18.262;2023-11-22T07:55:23;31.55;;;17.77;;
59468;SDS011;45277;52.768;18.262;2023-11-22T07:56:54;28.90;;;16.30;;
59468;SDS011;45277;52.768;18.262;2023-11-22T07:58:26;35.13;;;17.02;;
59468;SDS011;45277;52.768;18.262;2023-11-22T07:59:58;30.77;;;17.35;;
59468;SDS011;45277;52.768;18.262;2023-11-22T08:01:31;33.88;;;18.08;;
59468;SDS011;45277;52.768;18.262;2023-11-22T08:03:03;32.90;;;15.60;;
59468;SDS011;45277;52.768;18.262;2023-11-22T08:04:34;32.40;;;17.02;;
59468;SDS011;45277;52.768;18.262;2023-11-22T08:06:06;35.33;;;18.10;;
59468;SDS011;45277;52.768;18.262;2023-11-22T08:07:39;34.50;;;16.52;;
59468;SDS011;45277;52.768;18.262;2023-11-22T08:09:11;32.08;;;17.35;;
59468;SDS011;45277;52.768;18.262;2023-11-22T08:10:42;26.92;;;15.38;;
59468;SDS011;45277;52.768;18.262;2023-11-22T08:12:14;27.50;;;16.02;;
59468;SDS011;45277;52.768;18.262;2023-11-22T08:13:46;34.70;;;17.13;;
59468;SDS011;45277;52.768;18.262;2023-11-22T08:15:18;37.28;;;18.67;;
59468;SDS011;45277;52.768;18.262;2023-11-22T08:16:51;38.00;;;19.55;;
59468;SDS011;45277;52.768;18.262;2023-11-22T08:18:22;39.42;;;19.88;;
59468;SDS011;45277;52.768;18.262;2023-11-22T08:19:53;37.08;;;18.70;;
59468;SDS011;45277;52.768;18.262;2023-11-22T08:21:25;39.28;;;19.83;;
59468;SDS011;45277;52.768;18.262;2023-11-22T08:22:58;40.72;;;19.30;;
59468;SDS011;45277;52.768;18.262;2023-11-22T08:24:31;33.10;;;17.20;;
59468;SDS011;45277;52.768;18.262;2023-11-22T08:26:03;33.20;;;16.50;;
59468;SDS011;45277;52.768;18.262;2023-11-22T08:27:36;23.83;;;14.00;;
59468;SDS011;45277;52.768;18.262;2023-11-22T08:29:07;28.85;;;14.23;;
59468;SDS011;45277;52.768;18.262;2023-11-22T08:30:39;27.70;;;14.77;;
59468;SDS011;45277;52.768;18.262;2023-11-22T08:32:11;25.67;;;14.35;;
59468;SDS011;45277;52.768;18.262;2023-11-22T08:33:43;26.35;;;13.88;;
59468;SDS011;45277;52.768;18.262;2023-11-22T08:35:15;25.77;;;14.45;;
59468;SDS011;45277;52.768;18.262;2023-11-22T08:36:47;27.90;;;15.10;;
59468;SDS011;45277;52.768;18.262;2023-11-22T08:38:18;23.27;;;13.10;;
59468;SDS011;45277;52.768;18.262;2023-11-22T08:39:50;25.60;;;14.20;;
59468;SDS011;45277;52.768;18.262;2023-11-22T08:41:21;28.38;;;14.35;;
59468;SDS011;45277;52.768;18.262;2023-11-22T08:42:54;28.95;;;15.25;;
59468;SDS011;45277;52.768;18.262;2023-11-22T08:44:26;30.75;;;15.05;;
59468;SDS011;45277;52.768;18.262;2023-11-22T08:46:00;26.88;;;14.45;;
59468;SDS011;45277;52.768;18.262;2023-11-22T08:47:35;27.55;;;15.73;;
59468;SDS011;45277;52.768;18.262;2023-11-22T08:49:07;22.48;;;13.38;;
59468;SDS011;45277;52.768;18.262;2023-11-22T08:50:38;23.17;;;13.93;;
59468;SDS011;45277;52.768;18.262;2023-11-22T08:52:10;26.58;;;13.93;;
59468;SDS011;45277;52.768;18.262;2023-11-22T08:53:43;25.05;;;14.45;;
59468;SDS011;45277;52.768;18.262;2023-11-22T08:55:15;22.88;;;13.52;;